Time;durP1;ratioP1;P1;durP2;ratioP2;P2;SDS_P1;SDS_P2;PMS_P1;PMS_P2;Temp;Humidity;BMP_temperature;BMP_pressure;BME280_temperature;BME280_humidity;BME280_pressure;Samples;Min_cycle;Max_cycle;Signal;HPM_P1;HPM_P2
2023/05/27 00:01:13;;;;;;;14.27;3.17;;;9.70;99.90;;;;;;5051435;28;20692;-70
2023/05/27 00:03:40;;;;;;;11.20;3.23;;;9.60;99.90;;;;;;5050977;28;20594;-72
2023/05/27 00:06:07;;;;;;;10.87;3.43;;;9.60;99.90;;;;;;5033478;28;20214;-71
2023/05/27 00:08:34;;;;;;;14.60;3.50;;;9.60;99.90;;;;;;5047687;28;20204;-71
2023/05/27 00:11:01;;;;;;;14.63;3.70;;;9.50;99.90;;;;;;5051421;28;20608;-71
2023/05/27 00:13:28;;;;;;;7.50;3.23;;;9.50;99.90;;;;;;5051102;28;20298;-71
2023/05/27 00:15:55;;;;;;;10.33;3.93;;;9.40;99.90;;;;;;5050683;28;20223;-70
2023/05/27 00:18:22;;;;;;;11.07;3.70;;;9.40;99.90;;;;;;5050705;28;20621;-71
2023/05/27 00:20:49;;;;;;;12.77;3.90;;;9.40;99.90;;;;;;5047524;28;20274;-71
2023/05/27 00:23:16;;;;;;;12.10;3.13;;;9.40;99.90;;;;;;5050997;28;20204;-72
2023/05/27 00:25:43;;;;;;;14.53;3.73;;;9.40;99.90;;;;;;5051023;28;20208;-71
2023/05/27 00:28:10;;;;;;;9.60;3.40;;;9.40;99.90;;;;;;5047128;28;20212;-71
2023/05/27 00:30:37;;;;;;;7.80;3.47;;;9.40;99.90;;;;;;5049414;28;20260;-72
2023/05/27 00:33:03;;;;;;;14.07;3.83;;;9.40;99.90;;;;;;5049119;28;20269;-70
2023/05/27 00:35:30;;;;;;;10.03;3.60;;;9.30;99.90;;;;;;5050960;28;20311;-72
2023/05/27 00:37:57;;;;;;;12.93;3.73;;;9.30;99.90;;;;;;5048233;28;20204;-71
2023/05/27 00:40:26;;;;;;;16.40;3.80;;;9.30;99.90;;;;;;5045884;28;20211;-71
2023/05/27 00:42:53;;;;;;;12.00;3.40;;;9.30;99.90;;;;;;5051193;28;20206;-71
2023/05/27 00:45:20;;;;;;;12.03;3.57;;;9.20;99.90;;;;;;5051167;28;20256;-71
2023/05/27 00:47:49;;;;;;;11.03;3.67;;;9.20;99.90;;;;;;5047681;28;20485;-71
2023/05/27 00:50:17;;;;;;;10.03;3.53;;;9.20;99.90;;;;;;5049694;28;20281;-71
2023/05/27 00:52:44;;;;;;;12.20;3.80;;;9.20;99.90;;;;;;5031070;28;20216;-71
2023/05/27 00:55:12;;;;;;;11.47;3.73;;;9.20;99.90;;;;;;5049469;28;20201;-71
2023/05/27 00:57:39;;;;;;;9.60;3.83;;;9.20;99.90;;;;;;5049194;28;20207;-71
2023/05/27 01:00:12;;;;;;;10.00;3.70;;;9.20;99.90;;;;;;5050044;28;20209;-70
2023/05/27 01:02:41;;;;;;;16.97;3.60;;;9.10;99.90;;;;;;5049847;28;20292;-70
2023/05/27 01:05:10;;;;;;;12.17;4.17;;;9.10;99.90;;;;;;5045965;28;20203;-70
2023/05/27 01:07:50;;;;;;;14.10;3.87;;;9.10;99.90;;;;;;5048737;28;20225;-71
2023/05/27 01:10:40;;;;;;;12.27;3.37;;;9.10;99.90;;;;;;5048662;28;20193;-70
2023/05/27 01:13:13;;;;;;;10.63;3.93;;;9.00;99.90;;;;;;5047947;28;20211;-70
2023/05/27 01:15:40;;;;;;;10.00;3.90;;;9.00;99.90;;;;;;5049922;28;20198;-71
2023/05/27 01:18:09;;;;;;;14.60;3.50;;;9.00;99.90;;;;;;5049911;28;20230;-71
2023/05/27 01:20:40;;;;;;;10.80;4.13;;;8.90;99.90;;;;;;5046066;28;20589;-71
2023/05/27 01:23:08;;;;;;;15.70;3.70;;;9.00;99.90;;;;;;5038429;28;20261;-71
2023/05/27 01:25:35;;;;;;;12.77;3.40;;;8.90;99.90;;;;;;5049838;28;20257;-70
2023/05/27 01:28:02;;;;;;;11.37;3.83;;;8.90;99.90;;;;;;5048730;28;20203;-71
2023/05/27 01:30:30;;;;;;;12.97;3.80;;;8.80;99.90;;;;;;5049314;28;20225;-71
2023/05/27 01:32:57;;;;;;;14.73;3.80;;;8.80;99.90;;;;;;5050020;28;20241;-70
2023/05/27 01:35:29;;;;;;;16.80;4.10;;;8.80;99.90;;;;;;5049972;28;20294;-71
2023/05/27 01:37:59;;;;;;;10.27;3.40;;;8.80;99.90;;;;;;5047742;28;20206;-71
2023/05/27 01:40:27;;;;;;;10.33;3.70;;;8.80;99.90;;;;;;5049783;28;20559;-70
2023/05/27 01:42:57;;;;;;;14.43;3.67;;;8.80;99.90;;;;;;5045062;28;20220;-71
2023/05/27 01:45:24;;;;;;;13.53;3.93;;;8.80;99.90;;;;;;5044179;28;20210;-71
2023/05/27 01:47:51;;;;;;;13.20;4.20;;;8.80;99.90;;;;;;5047855;28;20627;-70
2023/05/27 01:50:18;;;;;;;8.40;3.87;;;8.70;99.90;;;;;;5030613;28;20734;-72
2023/05/27 01:52:45;;;;;;;11.80;3.60;;;8.70;99.90;;;;;;5044843;28;20663;-72
2023/05/27 01:55:12;;;;;;;14.80;3.77;;;8.70;99.90;;;;;;5030441;28;20543;-71
2023/05/27 01:57:39;;;;;;;14.70;3.37;;;8.70;99.90;;;;;;5047595;28;20220;-71
2023/05/27 02:00:09;;;;;;;14.60;3.97;;;8.70;99.90;;;;;;5045078;28;20290;-70
2023/05/27 02:02:37;;;;;;;15.30;4.63;;;8.60;99.90;;;;;;5048529;28;20242;-71
2023/05/27 02:05:04;;;;;;;12.77;3.87;;;8.60;99.90;;;;;;5048542;28;20252;-70
2023/05/27 02:07:30;;;;;;;10.03;4.10;;;8.50;99.90;;;;;;5051262;28;20260;-72
2023/05/27 02:09:57;;;;;;;10.57;3.60;;;8.50;99.90;;;;;;5049247;28;20423;-70
2023/05/27 02:12:25;;;;;;;17.43;4.53;;;8.50;99.90;;;;;;5050007;28;20217;-71
2023/05/27 02:14:51;;;;;;;9.40;3.93;;;8.50;99.90;;;;;;5048521;28;20201;-73
2023/05/27 02:17:18;;;;;;;14.20;4.20;;;8.40;99.90;;;;;;5049227;28;20237;-71
2023/05/27 02:19:45;;;;;;;13.47;4.20;;;8.40;99.90;;;;;;5043837;28;20260;-71
2023/05/27 02:22:12;;;;;;;15.40;4.80;;;8.30;99.90;;;;;;5045104;28;20284;-70
2023/05/27 02:24:39;;;;;;;13.73;4.07;;;8.30;99.90;;;;;;5045388;28;20212;-71
2023/05/27 02:27:06;;;;;;;10.47;3.43;;;8.30;99.90;;;;;;5049245;28;20212;-71
2023/05/27 02:29:34;;;;;;;14.63;4.10;;;8.30;99.90;;;;;;5048151;28;20572;-70
2023/05/27 02:32:01;;;;;;;11.30;4.20;;;8.30;99.90;;;;;;5048878;28;20611;-70
2023/05/27 02:34:28;;;;;;;15.60;4.03;;;8.30;99.90;;;;;;5049021;28;20236;-71
2023/05/27 02:36:55;;;;;;;13.30;4.03;;;8.30;99.90;;;;;;5049321;28;20746;-71
2023/05/27 02:39:21;;;;;;;11.00;3.70;;;8.20;99.90;;;;;;5043122;28;20688;-72
2023/05/27 02:41:48;;;;;;;11.87;4.20;;;8.20;99.90;;;;;;5052526;28;20237;-71
2023/05/27 02:44:15;;;;;;;15.77;4.50;;;8.20;99.90;;;;;;5032530;28;20616;-72
2023/05/27 02:46:42;;;;;;;17.67;4.00;;;8.20;99.90;;;;;;5053054;28;20253;-71
2023/05/27 02:49:08;;;;;;;19.40;4.17;;;8.20;99.90;;;;;;5046940;28;20243;-71
2023/05/27 02:51:35;;;;;;;14.90;4.27;;;8.20;99.90;;;;;;5052398;28;20209;-71
2023/05/27 02:54:02;;;;;;;9.57;3.60;;;8.20;99.90;;;;;;5051547;28;20730;-72
2023/05/27 02:56:29;;;;;;;12.73;4.07;;;8.10;99.90;;;;;;5051562;28;20212;-71
2023/05/27 02:58:57;;;;;;;15.23;4.17;;;8.10;99.90;;;;;;5047481;28;20554;-72
2023/05/27 03:01:24;;;;;;;16.20;4.50;;;8.10;99.90;;;;;;5032703;28;20241;-71
2023/05/27 03:03:51;;;;;;;13.67;4.23;;;8.10;99.90;;;;;;5034955;28;20209;-73
2023/05/27 03:06:18;;;;;;;9.87;3.60;;;8.10;99.90;;;;;;5033705;28;20212;-71
2023/05/27 03:08:45;;;;;;;7.70;4.03;;;8.00;99.90;;;;;;5049327;28;20199;-70
2023/05/27 03:11:12;;;;;;;10.13;4.33;;;8.00;99.90;;;;;;5053389;28;20207;-71
2023/05/27 03:13:41;;;;;;;15.73;4.43;;;8.00;99.90;;;;;;5052451;28;20209;-72
2023/05/27 03:16:12;;;;;;;15.80;4.37;;;8.00;99.90;;;;;;5041998;28;20228;-72
2023/05/27 03:18:39;;;;;;;13.03;4.03;;;8.00;99.90;;;;;;5046125;28;20202;-72
2023/05/27 03:21:07;;;;;;;8.43;3.10;;;8.00;99.90;;;;;;5049354;28;20228;-71
2023/05/27 03:23:34;;;;;;;8.67;3.10;;;8.00;99.90;;;;;;5035393;28;20205;-72
2023/05/27 03:26:01;;;;;;;6.53;2.90;;;8.00;99.90;;;;;;5053480;28;20201;-71
2023/05/27 03:28:28;;;;;;;7.90;2.97;;;8.00;99.90;;;;;;5035703;28;20209;-71
2023/05/27 03:30:55;;;;;;;9.57;3.27;;;8.00;99.90;;;;;;5052799;28;20256;-71
2023/05/27 03:33:23;;;;;;;6.07;3.27;;;8.00;99.90;;;;;;5050581;28;20248;-71
2023/05/27 03:35:51;;;;;;;4.97;3.30;;;8.00;99.90;;;;;;5053076;28;20201;-72
2023/05/27 03:38:20;;;;;;;8.30;3.60;;;7.90;99.90;;;;;;5053026;28;20217;-72
2023/05/27 03:40:46;;;;;;;8.80;3.83;;;8.00;99.90;;;;;;5048797;28;20212;-71
2023/05/27 03:43:13;;;;;;;8.20;3.03;;;7.90;99.90;;;;;;5049627;28;20201;-71
2023/05/27 03:45:40;;;;;;;6.90;3.10;;;7.90;99.90;;;;;;5052769;28;20612;-71
2023/05/27 03:48:07;;;;;;;8.03;3.40;;;7.90;99.90;;;;;;5052654;28;20211;-70
2023/05/27 03:50:34;;;;;;;7.57;3.40;;;7.90;99.90;;;;;;5054107;28;20199;-71
2023/05/27 03:53:00;;;;;;;8.83;3.60;;;7.90;99.90;;;;;;5053381;28;20207;-71
2023/05/27 03:55:27;;;;;;;14.10;4.60;;;7.90;99.90;;;;;;5052058;28;20194;-71
2023/05/27 03:57:54;;;;;;;11.97;3.70;;;7.90;99.90;;;;;;5049276;28;20212;-72
2023/05/27 04:00:21;;;;;;;7.90;3.33;;;8.00;99.90;;;;;;5050290;28;20220;-71
2023/05/27 04:02:49;;;;;;;13.90;4.30;;;8.00;99.90;;;;;;5051108;28;20287;-72
2023/05/27 04:05:16;;;;;;;10.13;3.67;;;8.00;99.90;;;;;;5059466;28;20232;-71
2023/05/27 04:07:43;;;;;;;8.63;3.60;;;8.00;99.90;;;;;;5061887;28;20189;-71
2023/05/27 04:10:10;;;;;;;9.53;2.97;;;8.00;99.90;;;;;;5037280;28;20772;-70
2023/05/27 04:12:40;;;;;;;10.73;4.27;;;8.00;99.90;;;;;;5060382;28;20209;-72
2023/05/27 04:15:08;;;;;;;9.07;3.47;;;8.00;99.90;;;;;;5062097;28;20201;-70
2023/05/27 04:17:35;;;;;;;7.67;3.30;;;8.10;99.90;;;;;;5060951;28;20236;-70
2023/05/27 04:20:13;;;;;;;7.47;3.27;;;8.10;99.90;;;;;;5060315;28;20218;-71
2023/05/27 04:22:41;;;;;;;8.47;3.40;;;8.10;99.90;;;;;;5061005;28;20229;-72
2023/05/27 04:25:08;;;;;;;9.03;4.10;;;8.20;99.90;;;;;;5044768;28;20213;-72
2023/05/27 04:27:36;;;;;;;7.63;3.63;;;8.20;99.90;;;;;;5059675;28;20214;-71
2023/05/27 04:30:07;;;;;;;6.87;3.87;;;8.30;99.90;;;;;;5061028;28;20737;-72
2023/05/27 04:32:37;;;;;;;12.73;3.90;;;8.30;99.90;;;;;;5061672;28;20288;-71
2023/05/27 04:35:08;;;;;;;10.30;3.60;;;8.40;99.90;;;;;;5042668;28;20237;-72
2023/05/27 04:37:36;;;;;;;9.87;3.77;;;8.50;99.90;;;;;;5060838;28;20205;-71
2023/05/27 04:40:04;;;;;;;8.23;3.30;;;8.50;99.90;;;;;;5061356;28;20209;-70
2023/05/27 04:42:32;;;;;;;9.40;4.10;;;8.60;99.90;;;;;;5056499;28;20264;-71
2023/05/27 04:45:00;;;;;;;10.10;3.37;;;8.70;99.90;;;;;;5053153;28;20212;-73
2023/05/27 04:47:26;;;;;;;12.73;3.93;;;8.70;99.90;;;;;;5050422;28;20296;-72
2023/05/27 04:49:53;;;;;;;11.03;3.27;;;8.70;99.90;;;;;;5053096;28;20203;-72
2023/05/27 04:52:21;;;;;;;13.77;4.33;;;8.80;99.90;;;;;;5051548;28;20204;-71
2023/05/27 04:54:48;;;;;;;11.07;3.80;;;8.90;99.90;;;;;;5051206;28;20257;-74
2023/05/27 04:57:18;;;;;;;10.53;3.53;;;9.00;99.90;;;;;;5044430;28;20274;-71
2023/05/27 05:02:35;;;;;;;8.17;4.43;;;9.10;99.90;;;;;;5012360;28;20232;-70
2023/05/27 05:05:06;;;;;;;10.93;4.07;;;9.20;99.90;;;;;;5047463;28;20493;-73
2023/05/27 05:07:35;;;;;;;13.00;4.17;;;9.20;99.90;;;;;;5046697;28;20673;-73
2023/05/27 05:10:02;;;;;;;11.33;4.40;;;9.20;99.90;;;;;;5047655;28;20208;-72
2023/05/27 05:12:29;;;;;;;15.07;4.57;;;9.40;99.90;;;;;;5048352;28;20205;-72
2023/05/27 05:14:58;;;;;;;16.47;4.67;;;9.40;99.90;;;;;;5047971;28;20257;-73
2023/05/27 05:17:25;;;;;;;17.00;4.87;;;9.60;99.90;;;;;;5047511;28;20221;-72
2023/05/27 05:19:52;;;;;;;12.93;4.80;;;9.70;99.90;;;;;;5045128;28;20201;-72
2023/05/27 05:22:22;;;;;;;16.03;4.77;;;9.80;99.90;;;;;;5048720;28;20225;-72
2023/05/27 05:24:49;;;;;;;13.93;5.57;;;9.90;99.90;;;;;;5028512;28;20990;-72
2023/05/27 05:27:17;;;;;;;16.60;4.40;;;9.90;99.90;;;;;;5045705;28;20670;-72
2023/05/27 05:29:44;;;;;;;14.83;5.13;;;10.00;99.90;;;;;;5046676;28;20665;-72
2023/05/27 05:32:11;;;;;;;10.70;4.27;;;10.30;99.90;;;;;;5044023;28;20828;-71
2023/05/27 05:34:39;;;;;;;14.90;5.00;;;10.90;99.90;;;;;;5045535;28;20314;-72
2023/05/27 05:37:06;;;;;;;14.83;4.83;;;11.70;99.90;;;;;;5045435;28;20635;-73
2023/05/27 05:39:33;;;;;;;20.03;4.47;;;12.60;99.90;;;;;;5047263;28;20622;-72
2023/05/27 05:42:00;;;;;;;6.90;3.63;;;13.60;99.90;;;;;;5045555;28;20225;-73
2023/05/27 05:44:26;;;;;;;10.47;4.17;;;14.40;99.90;;;;;;5021180;28;20206;-73
2023/05/27 05:46:53;;;;;;;13.73;4.63;;;15.00;99.90;;;;;;5040948;28;20698;-73
2023/05/27 05:49:20;;;;;;;9.63;3.95;;;15.70;99.90;;;;;;5043645;28;20204;-72
2023/05/27 05:51:47;;;;;;;15.52;4.30;;;16.30;99.90;;;;;;5046390;28;20240;-73
2023/05/27 05:54:14;;;;;;;13.88;4.03;;;16.80;99.90;;;;;;5048617;28;20201;-72
2023/05/27 05:56:41;;;;;;;11.82;4.15;;;17.30;99.90;;;;;;5027964;28;20193;-72
2023/05/27 05:59:08;;;;;;;8.93;3.70;;;17.70;99.90;;;;;;5048115;28;20232;-72
2023/05/27 06:01:35;;;;;;;18.48;4.57;;;18.10;99.90;;;;;;5043143;28;20233;-73
2023/05/27 06:04:04;;;;;;;10.80;3.55;;;18.50;99.90;;;;;;5045416;28;20197;-74
2023/05/27 06:06:31;;;;;;;12.60;3.72;;;19.00;99.90;;;;;;5043080;28;20297;-72
2023/05/27 06:08:58;;;;;;;11.88;4.45;;;19.50;99.90;;;;;;5043570;28;20213;-72
2023/05/27 06:11:26;;;;;;;9.63;3.65;;;19.80;99.90;;;;;;5044399;28;20205;-72
2023/05/27 06:13:53;;;;;;;9.70;3.50;;;19.80;99.90;;;;;;5040142;28;20304;-72
2023/05/27 06:16:22;;;;;;;10.45;3.70;;;19.70;99.90;;;;;;5043485;28;20276;-72
2023/05/27 06:18:48;;;;;;;14.52;4.07;;;20.00;99.90;;;;;;5046300;28;20216;-73
2023/05/27 06:21:15;;;;;;;11.10;3.55;;;20.40;99.90;;;;;;5044831;28;20209;-72
2023/05/27 06:23:42;;;;;;;14.05;3.83;;;20.60;99.90;;;;;;5047225;28;20201;-73
2023/05/27 06:26:09;;;;;;;9.43;3.58;;;20.80;99.90;;;;;;5042025;28;20198;-73
2023/05/27 06:28:35;;;;;;;10.63;3.28;;;21.00;99.90;;;;;;5043967;28;20208;-73
2023/05/27 06:31:02;;;;;;;7.63;2.80;;;21.00;99.90;;;;;;5046640;28;20602;-73
2023/05/27 06:33:29;;;;;;;15.98;3.85;;;21.20;99.90;;;;;;5047437;28;20308;-74
2023/05/27 06:35:56;;;;;;;10.48;3.35;;;21.40;99.90;;;;;;5046625;28;20205;-72
2023/05/27 06:38:24;;;;;;;10.18;3.55;;;21.70;99.90;;;;;;5047090;28;20197;-73
2023/05/27 06:40:51;;;;;;;11.85;3.75;;;21.70;99.90;;;;;;5043798;28;20194;-73
2023/05/27 06:43:18;;;;;;;10.63;3.45;;;21.50;99.90;;;;;;5044187;28;20221;-72
2023/05/27 06:45:45;;;;;;;8.30;3.42;;;21.40;99.90;;;;;;5047809;28;20205;-73
2023/05/27 06:48:29;;;;;;;11.75;3.40;;;21.10;99.90;;;;;;5030615;28;20198;-73
2023/05/27 06:50:55;;;;;;;12.52;3.72;;;21.00;99.90;;;;;;5048172;28;20673;-72
2023/05/27 06:53:22;;;;;;;12.40;3.65;;;21.00;99.90;;;;;;5028850;28;20593;-72
2023/05/27 06:55:49;;;;;;;12.75;3.90;;;20.70;99.90;;;;;;5043025;28;20205;-73
2023/05/27 06:58:16;;;;;;;15.90;4.38;;;20.90;99.90;;;;;;5048227;28;20198;-74
2023/05/27 07:00:43;;;;;;;14.75;3.85;;;21.20;99.90;;;;;;5046991;28;20667;-73
2023/05/27 07:03:10;;;;;;;13.68;3.60;;;21.00;99.90;;;;;;5042829;28;20229;-74
2023/05/27 07:05:37;;;;;;;11.70;3.60;;;21.40;99.90;;;;;;5046359;28;20197;-73
2023/05/27 07:08:05;;;;;;;9.98;3.38;;;21.90;99.90;;;;;;5026209;28;20248;-72
2023/05/27 07:10:32;;;;;;;7.15;3.40;;;22.50;99.90;;;;;;5046872;28;20205;-74
2023/05/27 07:12:59;;;;;;;9.32;3.67;;;23.00;99.90;;;;;;5042633;28;20579;-73
2023/05/27 07:15:30;;;;;;;8.82;3.95;;;23.20;99.90;;;;;;5046842;28;20197;-73
2023/05/27 07:17:58;;;;;;;9.73;3.75;;;23.40;99.90;;;;;;5021690;28;20230;-75
2023/05/27 07:20:25;;;;;;;12.82;3.90;;;23.50;99.90;;;;;;5028026;28;20201;-73
2023/05/27 07:22:52;;;;;;;14.07;3.90;;;23.40;99.90;;;;;;5024793;28;20673;-73
2023/05/27 07:25:18;;;;;;;13.55;3.85;;;23.00;99.90;;;;;;5022373;28;20209;-74
2023/05/27 07:27:45;;;;;;;13.13;3.67;;;23.10;99.90;;;;;;5022755;28;20199;-73
2023/05/27 07:30:12;;;;;;;13.68;4.93;;;23.10;99.90;;;;;;5032087;28;20216;-73
2023/05/27 07:32:39;;;;;;;10.95;3.28;;;23.40;99.90;;;;;;5029367;28;20315;-73
2023/05/27 07:35:06;;;;;;;13.02;4.18;;;23.40;99.90;;;;;;5024151;28;20198;-73
2023/05/27 07:37:34;;;;;;;10.60;3.42;;;23.40;99.90;;;;;;5024945;28;20309;-73
2023/05/27 07:40:01;;;;;;;9.02;3.40;;;23.30;99.90;;;;;;5024549;28;20191;-74
2023/05/27 07:42:28;;;;;;;14.63;4.30;;;23.20;99.90;;;;;;5028822;28;20639;-74
2023/05/27 07:44:57;;;;;;;13.70;3.90;;;23.10;99.90;;;;;;5026955;28;20304;-73
2023/05/27 07:47:24;;;;;;;11.95;4.20;;;23.20;99.90;;;;;;5026738;28;20745;-72
2023/05/27 07:49:54;;;;;;;11.57;3.80;;;23.20;99.90;;;;;;5022065;28;20214;-73
2023/05/27 07:52:20;;;;;;;13.70;3.97;;;23.10;99.90;;;;;;5026249;28;20728;-75
2023/05/27 07:54:48;;;;;;;9.10;3.85;;;23.00;99.90;;;;;;5027186;28;20204;-75
2023/05/27 07:57:21;;;;;;;13.52;4.07;;;23.00;99.90;;;;;;5028385;28;20626;-74
2023/05/27 07:59:48;;;;;;;16.20;3.85;;;23.30;99.90;;;;;;5030233;28;20241;-73
2023/05/27 08:02:15;;;;;;;12.27;3.83;;;23.40;99.90;;;;;;5024956;28;20321;-73
2023/05/27 08:04:43;;;;;;;10.60;3.90;;;23.90;99.90;;;;;;5029414;28;20212;-76
2023/05/27 08:07:11;;;;;;;10.48;4.55;;;24.30;99.90;;;;;;5022245;28;20205;-72
2023/05/27 08:09:38;;;;;;;10.23;3.35;;;24.40;99.90;;;;;;5028832;28;20622;-73
2023/05/27 08:12:06;;;;;;;12.20;4.43;;;24.60;99.90;;;;;;5021686;28;20213;-73
2023/05/27 08:14:34;;;;;;;14.15;4.03;;;24.40;99.90;;;;;;5028003;28;20202;-73
2023/05/27 08:17:01;;;;;;;11.50;4.07;;;24.40;99.90;;;;;;5035443;28;20591;-72
2023/05/27 08:19:28;;;;;;;12.13;3.80;;;24.40;99.90;;;;;;5046243;28;20241;-73
2023/05/27 08:21:56;;;;;;;11.13;3.47;;;24.10;99.90;;;;;;5051132;28;20209;-74
2023/05/27 08:24:24;;;;;;;12.50;3.72;;;24.40;99.90;;;;;;5047453;28;20297;-73
2023/05/27 08:26:51;;;;;;;14.60;4.45;;;24.40;99.90;;;;;;5048377;28;20663;-72
2023/05/27 08:29:18;;;;;;;13.82;4.22;;;24.30;99.90;;;;;;5033215;28;20205;-72
2023/05/27 08:31:45;;;;;;;12.27;4.03;;;24.60;99.90;;;;;;5041519;28;20252;-73
2023/05/27 08:34:13;;;;;;;9.65;4.18;;;24.80;99.90;;;;;;5049951;28;20485;-73
2023/05/27 08:36:40;;;;;;;12.48;4.47;;;24.90;99.90;;;;;;5045517;28;20200;-73
2023/05/27 08:39:06;;;;;;;15.80;3.95;;;25.00;99.90;;;;;;5047440;28;20284;-73
2023/05/27 08:41:34;;;;;;;10.85;4.35;;;25.30;99.90;;;;;;5045771;28;20227;-72
2023/05/27 08:44:01;;;;;;;11.00;4.00;;;25.40;99.80;;;;;;5046130;28;20711;-71
2023/05/27 08:46:48;;;;;;;12.10;4.30;;;25.50;99.90;;;;;;5042525;28;20213;-74
2023/05/27 08:49:16;;;;;;;8.55;3.85;;;25.60;99.90;;;;;;5048031;28;20209;-75
2023/05/27 08:51:45;;;;;;;10.00;4.13;;;25.50;99.40;;;;;;5046299;28;20193;-73
2023/05/27 08:54:12;;;;;;;11.63;4.32;;;25.50;98.90;;;;;;5028396;28;20299;-72
2023/05/27 08:56:40;;;;;;;10.20;4.03;;;25.60;98.40;;;;;;5047450;28;20217;-73
2023/05/27 08:59:08;;;;;;;9.43;4.18;;;25.60;98.60;;;;;;5046546;28;20209;-73
2023/05/27 09:01:35;;;;;;;14.52;3.92;;;25.60;98.80;;;;;;5043566;28;20213;-73
2023/05/27 09:04:02;;;;;;;10.95;4.30;;;25.70;98.40;;;;;;5049135;28;20239;-72
2023/05/27 09:06:29;;;;;;;13.88;5.25;;;25.70;97.60;;;;;;5049282;28;20209;-72
2023/05/27 09:08:56;;;;;;;10.45;4.15;;;25.60;97.70;;;;;;5028275;28;20201;-72
2023/05/27 09:11:25;;;;;;;15.18;4.40;;;25.40;97.60;;;;;;5029011;28;20204;-71
2023/05/27 09:13:55;;;;;;;12.73;4.18;;;25.20;97.70;;;;;;5047034;28;20556;-72
2023/05/27 09:16:23;;;;;;;10.85;4.25;;;25.40;98.10;;;;;;5040820;28;20652;-73
2023/05/27 09:18:50;;;;;;;10.70;4.47;;;25.50;97.90;;;;;;5043306;28;20216;-73
2023/05/27 09:21:17;;;;;;;11.70;3.85;;;25.30;97.70;;;;;;5040425;28;20205;-73
2023/05/27 09:23:45;;;;;;;10.10;4.75;;;25.20;97.60;;;;;;5040111;28;20278;-72
2023/05/27 09:26:12;;;;;;;10.57;4.38;;;24.90;97.60;;;;;;5048112;28;20676;-72
2023/05/27 09:28:40;;;;;;;8.40;3.90;;;24.60;98.00;;;;;;5045144;28;20581;-73
2023/05/27 09:31:08;;;;;;;9.13;4.15;;;24.30;98.60;;;;;;5046346;28;20670;-75
2023/05/27 09:33:38;;;;;;;11.57;4.18;;;24.30;98.90;;;;;;5042181;28;20201;-73
2023/05/27 09:36:07;;;;;;;12.07;4.30;;;24.10;99.00;;;;;;5044308;28;20202;-73
2023/05/27 09:38:35;;;;;;;11.93;4.57;;;23.90;99.20;;;;;;5046801;28;20249;-74
2023/05/27 09:41:03;;;;;;;14.07;4.57;;;23.70;99.20;;;;;;5044005;28;20201;-72
2023/05/27 09:43:30;;;;;;;12.82;4.47;;;23.30;99.50;;;;;;5041632;28;20225;-73
2023/05/27 09:46:05;;;;;;;13.38;4.57;;;23.30;99.90;;;;;;5046134;28;20666;-72
2023/05/27 09:48:32;;;;;;;13.38;4.82;;;23.30;99.90;;;;;;5044724;28;20208;-72
2023/05/27 09:51:00;;;;;;;17.52;4.50;;;23.40;99.90;;;;;;5025320;28;20271;-73
2023/05/27 09:53:28;;;;;;;13.18;4.60;;;23.50;99.90;;;;;;5047206;28;20205;-72
2023/05/27 09:55:56;;;;;;;8.18;4.05;;;23.60;99.60;;;;;;5043522;28;20260;-72
2023/05/27 09:58:24;;;;;;;9.93;4.80;;;23.80;99.40;;;;;;5050064;28;20607;-73
2023/05/27 10:00:52;;;;;;;11.43;4.18;;;23.70;99.10;;;;;;5043172;28;20229;-73
2023/05/27 10:03:27;;;;;;;9.75;3.80;;;23.70;99.30;;;;;;5040779;28;20228;-73
2023/05/27 10:05:55;;;;;;;11.77;4.28;;;23.70;99.10;;;;;;5043802;28;20209;-72
2023/05/27 10:08:23;;;;;;;12.02;4.15;;;23.50;98.60;;;;;;5043138;28;20666;-75
2023/05/27 10:10:53;;;;;;;12.65;4.70;;;23.40;98.40;;;;;;5043982;28;20205;-72
2023/05/27 10:13:23;;;;;;;15.18;5.28;;;23.40;99.00;;;;;;5042738;28;20210;-73
2023/05/27 10:15:51;;;;;;;11.70;4.45;;;23.50;98.70;;;;;;5042373;28;20249;-72
2023/05/27 10:18:23;;;;;;;12.40;4.53;;;23.30;98.90;;;;;;5045224;28;20208;-71
2023/05/27 10:20:51;;;;;;;13.05;4.32;;;23.50;98.80;;;;;;5043228;28;20210;-73
2023/05/27 10:23:30;;;;;;;13.02;4.05;;;23.50;99.10;;;;;;5044697;28;20283;-73
2023/05/27 10:26:02;;;;;;;11.43;4.55;;;23.50;99.10;;;;;;5042670;28;20212;-73
2023/05/27 10:28:35;;;;;;;11.02;4.10;;;23.40;98.80;;;;;;5028910;28;20201;-73
2023/05/27 10:31:17;;;;;;;9.52;4.53;;;23.40;99.10;;;;;;5039261;28;20624;-73
2023/05/27 10:33:47;;;;;;;13.70;4.85;;;23.40;99.40;;;;;;5046019;28;20364;-72
2023/05/27 10:36:17;;;;;;;10.80;4.13;;;23.30;99.00;;;;;;5045101;28;20229;-72
2023/05/27 10:38:56;;;;;;;14.95;4.70;;;23.40;99.10;;;;;;5041866;28;20208;-72
2023/05/27 10:41:23;;;;;;;14.32;4.65;;;23.50;99.70;;;;;;5044371;28;20548;-73
2023/05/27 10:43:57;;;;;;;11.75;4.90;;;23.40;99.20;;;;;;5044886;28;20474;-72
2023/05/27 10:46:24;;;;;;;13.20;4.72;;;23.40;98.90;;;;;;5045693;28;20277;-72
2023/05/27 10:48:52;;;;;;;15.20;5.47;;;23.50;98.90;;;;;;5044304;28;20615;-72
2023/05/27 10:51:19;;;;;;;15.40;5.50;;;23.50;98.90;;;;;;5013833;28;20256;-72
2023/05/27 10:53:46;;;;;;;12.93;4.95;;;23.50;99.10;;;;;;5045473;28;20206;-73
2023/05/27 10:56:25;;;;;;;11.88;4.80;;;23.60;99.20;;;;;;5041063;28;20193;-72
2023/05/27 10:58:55;;;;;;;10.77;4.47;;;23.70;98.80;;;;;;5045161;28;20202;-73
2023/05/27 11:01:27;;;;;;;15.15;5.32;;;23.80;98.70;;;;;;5045046;28;20209;-74
2023/05/27 11:03:54;;;;;;;17.40;5.25;;;23.70;98.70;;;;;;5048055;28;20221;-73
2023/05/27 11:06:21;;;;;;;14.30;5.40;;;23.60;98.70;;;;;;5048883;28;20339;-72
2023/05/27 11:08:48;;;;;;;16.92;5.30;;;23.50;98.50;;;;;;5046154;28;20209;-73
2023/05/27 11:11:15;;;;;;;12.32;4.90;;;23.60;98.10;;;;;;5050357;28;20229;-72
2023/05/27 11:13:45;;;;;;;12.32;4.60;;;23.60;98.20;;;;;;5049229;28;20359;-72
2023/05/27 11:16:15;;;;;;;11.68;4.68;;;23.70;98.10;;;;;;5026961;28;20227;-73
2023/05/27 11:18:47;;;;;;;12.38;4.40;;;23.60;98.50;;;;;;5046256;28;20708;-73
2023/05/27 11:21:16;;;;;;;15.27;4.57;;;23.70;98.90;;;;;;5048731;28;20619;-73
2023/05/27 11:23:46;;;;;;;14.73;4.57;;;23.80;98.70;;;;;;5051115;28;20251;-74
2023/05/27 11:26:21;;;;;;;17.48;4.80;;;24.00;98.50;;;;;;5030089;28;20202;-72
2023/05/27 11:28:50;;;;;;;11.98;4.30;;;24.30;98.10;;;;;;5032306;28;20299;-72
2023/05/27 11:31:20;;;;;;;12.52;4.93;;;24.50;97.90;;;;;;5030862;28;20217;-72
2023/05/27 11:33:50;;;;;;;14.75;4.95;;;24.50;97.50;;;;;;5049821;28;20727;-72
2023/05/27 11:36:18;;;;;;;8.88;4.28;;;24.60;97.20;;;;;;5043796;28;20296;-74
2023/05/27 11:38:59;;;;;;;10.73;4.40;;;24.50;97.60;;;;;;5050813;28;20669;-73
2023/05/27 11:41:30;;;;;;;14.10;5.25;;;24.50;97.60;;;;;;5045972;28;20255;-73
2023/05/27 11:43:59;;;;;;;11.88;4.70;;;24.50;97.40;;;;;;5047148;28;20233;-73
2023/05/27 11:46:37;;;;;;;12.15;4.60;;;24.60;97.60;;;;;;5046311;28;20680;-73
2023/05/27 11:49:06;;;;;;;14.90;4.82;;;24.50;97.70;;;;;;5030509;28;20213;-73
2023/05/27 11:51:44;;;;;;;14.75;4.28;;;24.30;97.10;;;;;;5049672;28;20197;-73
2023/05/27 11:54:30;;;;;;;13.55;4.95;;;24.40;97.80;;;;;;5046958;28;20201;-73
2023/05/27 11:56:58;;;;;;;10.00;4.65;;;24.50;97.30;;;;;;5051136;28;20336;-73
2023/05/27 11:59:26;;;;;;;12.65;5.38;;;24.50;97.10;;;;;;5050482;28;20212;-73
2023/05/27 12:01:55;;;;;;;10.82;4.53;;;24.40;96.90;;;;;;5049087;28;20217;-73
2023/05/27 12:04:23;;;;;;;14.32;4.40;;;24.40;96.20;;;;;;5049760;28;20681;-72
2023/05/27 12:06:50;;;;;;;14.13;4.97;;;24.40;96.70;;;;;;5049531;28;20220;-72
2023/05/27 12:09:17;;;;;;;11.32;4.28;;;24.50;96.50;;;;;;5050537;28;20201;-73
2023/05/27 12:11:44;;;;;;;13.35;4.63;;;24.50;97.00;;;;;;5028074;28;20201;-73
2023/05/27 12:14:11;;;;;;;11.10;4.30;;;24.70;97.20;;;;;;5047494;28;20205;-72
2023/05/27 12:16:38;;;;;;;11.20;4.70;;;24.80;96.70;;;;;;5042605;28;20330;-71
2023/05/27 12:19:05;;;;;;;12.63;4.70;;;24.70;96.40;;;;;;5041484;28;20213;-73
2023/05/27 12:21:32;;;;;;;14.80;4.85;;;24.70;96.50;;;;;;5036823;28;20216;-72
2023/05/27 12:23:59;;;;;;;11.23;4.90;;;24.50;96.90;;;;;;5044355;28;20232;-73
2023/05/27 12:26:26;;;;;;;9.18;4.07;;;24.40;96.70;;;;;;5043130;28;20197;-71
2023/05/27 12:28:53;;;;;;;10.48;4.38;;;24.60;96.90;;;;;;5048569;28;20209;-72
2023/05/27 12:31:20;;;;;;;12.88;4.68;;;24.60;96.40;;;;;;5043890;28;20627;-71
2023/05/27 12:33:47;;;;;;;14.48;4.63;;;24.70;96.80;;;;;;5048344;28;20606;-71
2023/05/27 12:36:14;;;;;;;12.05;4.10;;;24.90;96.80;;;;;;5026755;28;20289;-73
2023/05/27 12:38:41;;;;;;;12.50;4.05;;;24.90;97.10;;;;;;5050795;28;20213;-72
2023/05/27 12:41:08;;;;;;;11.80;4.28;;;25.00;96.80;;;;;;5046469;28;20263;-73
2023/05/27 12:43:35;;;;;;;13.43;4.63;;;25.00;96.50;;;;;;5044791;28;20239;-72
2023/05/27 12:46:02;;;;;;;12.07;5.22;;;25.10;96.20;;;;;;5027423;28;20232;-73
2023/05/27 12:48:28;;;;;;;13.88;4.35;;;25.10;96.10;;;;;;5050864;28;20703;-73
2023/05/27 12:50:55;;;;;;;13.38;4.43;;;25.20;96.60;;;;;;5038952;28;20213;-71